createdAt,value
2022-12-19T00:01:43.470Z,-0.18
2022-12-19T00:04:15.443Z,-0.13
2022-12-19T00:06:44.112Z,-0.17
2022-12-19T00:09:13.093Z,-0.14
2022-12-19T00:11:40.734Z,-0.15
2022-12-19T00:14:11.477Z,-0.16
2022-12-19T00:16:38.368Z,-0.18
2022-12-19T00:19:05.439Z,-0.14
2022-12-19T00:21:35.433Z,-0.13
2022-12-19T00:24:18.416Z,-0.11
2022-12-19T00:26:50.229Z,-0.03
2022-12-19T00:29:20.574Z,-0.04
2022-12-19T00:31:47.480Z,0.05
2022-12-19T00:34:15.139Z,0.11
2022-12-19T00:36:42.412Z,0.13
2022-12-19T00:39:10.521Z,0.16
2022-12-19T00:41:42.087Z,0.25
2022-12-19T00:44:13.853Z,0.35
2022-12-19T00:46:40.953Z,0.48
2022-12-19T00:49:07.791Z,0.54
2022-12-19T00:51:37.555Z,0.64
2022-12-19T00:54:08.048Z,0.68
2022-12-19T00:56:38.220Z,0.71
2022-12-19T00:59:07.000Z,0.69
2022-12-19T01:01:37.730Z,0.68
2022-12-19T01:06:59.767Z,0.73
2022-12-19T01:09:34.395Z,0.76
2022-12-19T01:12:21.032Z,0.78
2022-12-19T01:15:03.758Z,0.86
2022-12-19T01:17:30.982Z,0.91
2022-12-19T01:19:57.724Z,0.95
2022-12-19T01:22:24.469Z,0.95
2022-12-19T01:24:51.188Z,1.03
2022-12-19T01:27:17.876Z,1.12
2022-12-19T01:29:52.831Z,1.12
2022-12-19T01:32:21.773Z,1.09
2022-12-19T01:34:48.629Z,1.05
2022-12-19T01:37:19.871Z,1.07
2022-12-19T01:39:47.015Z,1.09
2022-12-19T01:42:23.542Z,1.13
2022-12-19T01:45:02.918Z,1.18
2022-12-19T01:47:33.113Z,1.20
2022-12-19T01:50:03.562Z,1.15
2022-12-19T01:52:31.267Z,1.21
2022-12-19T01:54:58.577Z,1.22
2022-12-19T01:57:25.616Z,1.29
2022-12-19T02:00:00.271Z,1.29
2022-12-19T02:02:33.544Z,1.28
2022-12-19T02:05:03.330Z,1.27
2022-12-19T02:07:32.743Z,1.28
2022-12-19T02:10:00.082Z,1.26
2022-12-19T02:12:40.133Z,1.29
2022-12-19T02:15:10.674Z,1.35
2022-12-19T02:17:38.123Z,1.35
2022-12-19T02:20:27.669Z,1.37
2022-12-19T02:23:30.718Z,1.42
2022-12-19T02:26:16.246Z,1.46
2022-12-19T02:29:15.544Z,1.47
2022-12-19T02:32:02.263Z,1.47
2022-12-19T02:34:44.652Z,1.53
2022-12-19T02:37:33.770Z,1.60
2022-12-19T02:40:16.541Z,1.64
2022-12-19T02:42:50.623Z,1.65
2022-12-19T02:45:28.500Z,1.71
2022-12-19T02:48:03.333Z,1.79
2022-12-19T02:50:42.815Z,1.78
2022-12-19T02:53:14.065Z,1.84
2022-12-19T02:56:40.141Z,1.83
2022-12-19T02:59:58.353Z,1.93
2022-12-19T03:02:53.162Z,1.92
2022-12-19T03:06:18.349Z,1.92
2022-12-19T03:09:00.258Z,1.93
2022-12-19T03:11:35.777Z,1.96
2022-12-19T03:14:09.896Z,1.95
2022-12-19T03:16:38.146Z,2.01
2022-12-19T03:19:11.779Z,2.07
2022-12-19T03:22:02.170Z,2.12
2022-12-19T03:24:29.245Z,2.16
2022-12-19T03:27:21.110Z,2.21
2022-12-19T03:30:00.581Z,2.19
2022-12-19T03:32:31.504Z,2.16
2022-12-19T03:35:29.104Z,2.13
2022-12-19T03:38:02.317Z,2.12
2022-12-19T03:40:30.179Z,2.20
2022-12-19T03:43:12.661Z,2.29
2022-12-19T03:45:43.711Z,2.32
2022-12-19T03:48:43.578Z,2.37
2022-12-19T03:51:19.018Z,2.44
2022-12-19T03:53:57.015Z,2.50
2022-12-19T03:56:42.365Z,2.59
2022-12-19T03:59:34.136Z,2.66
2022-12-19T04:02:04.414Z,2.68
2022-12-19T04:04:37.950Z,2.66
2022-12-19T04:07:07.775Z,2.75
2022-12-19T04:09:38.268Z,2.79
2022-12-19T04:12:14.544Z,2.81
2022-12-19T04:14:42.222Z,2.89
2022-12-19T04:17:46.545Z,2.92
2022-12-19T04:20:20.836Z,2.95
2022-12-19T04:23:01.435Z,2.97
2022-12-19T04:25:36.668Z,2.98
2022-12-19T04:28:15.768Z,3.00
2022-12-19T04:30:45.125Z,3.04
2022-12-19T04:33:12.049Z,3.11
2022-12-19T04:35:39.048Z,3.17
2022-12-19T04:38:06.641Z,3.22
2022-12-19T04:40:40.886Z,3.23
2022-12-19T04:43:09.390Z,3.21
2022-12-19T04:45:36.731Z,3.28
2022-12-19T04:48:04.144Z,3.37
2022-12-19T04:50:33.724Z,3.39
2022-12-19T04:53:01.202Z,3.41
2022-12-19T04:55:28.052Z,3.42
2022-12-19T04:57:54.807Z,3.47
2022-12-19T05:00:21.826Z,3.47
2022-12-19T05:02:48.725Z,3.51
2022-12-19T05:05:16.560Z,3.61
2022-12-19T05:07:43.294Z,3.70
2022-12-19T05:10:10.229Z,3.81
2022-12-19T05:12:37.352Z,3.89
2022-12-19T05:15:05.823Z,3.94
2022-12-19T05:17:32.558Z,4.00
2022-12-19T05:19:59.317Z,4.07
2022-12-19T05:22:26.116Z,4.17
2022-12-19T05:24:52.871Z,4.38
2022-12-19T05:27:19.659Z,4.48
2022-12-19T05:29:46.477Z,4.61
2022-12-19T05:32:13.244Z,4.66
2022-12-19T05:34:39.970Z,4.78
2022-12-19T05:37:06.673Z,4.90
2022-12-19T05:39:33.618Z,5.00
2022-12-19T05:42:00.597Z,5.07
2022-12-19T05:44:27.390Z,5.17
2022-12-19T05:46:54.345Z,5.23
2022-12-19T05:49:21.137Z,5.28
2022-12-19T05:51:48.434Z,5.35
2022-12-19T05:54:15.155Z,5.43
2022-12-19T05:56:41.856Z,5.51
2022-12-19T05:59:08.625Z,5.54
2022-12-19T06:01:35.507Z,5.55
2022-12-19T06:04:02.343Z,5.59
2022-12-19T06:06:29.099Z,5.64
2022-12-19T06:08:58.595Z,5.67
2022-12-19T06:11:26.831Z,5.70
2022-12-19T06:13:53.984Z,5.75
2022-12-19T06:16:23.203Z,5.82
2022-12-19T06:18:50.517Z,5.85
2022-12-19T06:21:21.784Z,5.85
2022-12-19T06:23:49.495Z,5.89
2022-12-19T06:26:20.513Z,5.90
2022-12-19T06:28:55.629Z,5.94
2022-12-19T06:31:25.017Z,5.96
2022-12-19T06:33:52.424Z,5.98
2022-12-19T06:36:29.207Z,6.03
2022-12-19T06:38:59.086Z,6.04
2022-12-19T06:41:45.863Z,6.06
2022-12-19T06:44:17.216Z,6.05
2022-12-19T06:46:44.583Z,6.10
2022-12-19T06:49:12.119Z,6.14
2022-12-19T06:51:39.257Z,6.17
2022-12-19T06:54:06.462Z,6.21
2022-12-19T06:56:37.943Z,6.27
2022-12-19T06:59:06.046Z,6.29
2022-12-19T07:01:59.533Z,6.34
2022-12-19T07:04:43.469Z,6.31
2022-12-19T07:07:10.346Z,6.36
2022-12-19T07:09:37.363Z,6.44
2022-12-19T07:12:07.433Z,6.48
2022-12-19T07:14:34.265Z,6.54
2022-12-19T07:17:03.258Z,6.57
2022-12-19T07:19:32.943Z,6.57
2022-12-19T07:22:03.706Z,6.54
2022-12-19T07:24:31.091Z,6.50
2022-12-19T07:26:58.537Z,6.46
2022-12-19T07:29:25.607Z,6.46
2022-12-19T07:31:53.030Z,6.48
2022-12-19T07:34:20.065Z,6.52
2022-12-19T07:36:46.888Z,6.55
2022-12-19T07:39:13.634Z,6.58
2022-12-19T07:41:40.461Z,6.58
2022-12-19T07:44:08.007Z,6.61
2022-12-19T07:46:35.544Z,6.62
2022-12-19T07:49:02.364Z,6.64
2022-12-19T07:51:29.373Z,6.64
2022-12-19T07:53:56.420Z,6.63
2022-12-19T07:56:23.248Z,6.66
2022-12-19T07:58:51.687Z,6.65
2022-12-19T08:01:18.820Z,6.63
2022-12-19T08:03:45.722Z,6.65
2022-12-19T08:06:12.488Z,6.65
2022-12-19T08:08:39.343Z,6.63
2022-12-19T08:11:13.196Z,6.61
2022-12-19T08:13:46.147Z,6.63
2022-12-19T08:16:14.616Z,6.68
2022-12-19T08:18:41.537Z,6.66
2022-12-19T08:21:09.667Z,6.69
2022-12-19T08:23:36.882Z,6.67
2022-12-19T08:26:11.514Z,6.68
2022-12-19T08:28:38.640Z,6.70
2022-12-19T08:31:17.293Z,6.69
2022-12-19T08:33:44.594Z,6.72
2022-12-19T08:36:15.009Z,6.74
2022-12-19T08:38:42.462Z,6.72
2022-12-19T08:41:09.594Z,6.76
2022-12-19T08:43:36.540Z,6.80
2022-12-19T08:46:03.411Z,6.87
2022-12-19T08:48:32.578Z,6.94
2022-12-19T08:51:04.631Z,6.97
2022-12-19T08:53:35.469Z,7.02
2022-12-19T08:56:19.731Z,7.03
2022-12-19T08:58:47.363Z,7.03
2022-12-19T09:01:23.896Z,7.07
2022-12-19T09:04:21.709Z,7.08
2022-12-19T09:06:38.127Z,7.13
2022-12-19T09:09:05.575Z,7.18
2022-12-19T09:11:32.535Z,7.21
2022-12-19T09:13:59.398Z,7.26
2022-12-19T09:16:28.438Z,7.30
2022-12-19T09:18:58.771Z,7.35
2022-12-19T09:21:29.201Z,7.39
2022-12-19T09:24:07.086Z,7.49
2022-12-19T09:26:35.705Z,7.61
2022-12-19T09:29:03.696Z,7.65
2022-12-19T09:31:37.503Z,7.65
2022-12-19T09:34:04.863Z,7.62
2022-12-19T09:36:31.922Z,7.62
2022-12-19T09:38:59.580Z,7.61
2022-12-19T09:42:05.489Z,7.61
2022-12-19T09:45:09.119Z,7.62
2022-12-19T09:47:43.758Z,7.65
2022-12-19T09:50:35.934Z,7.67
2022-12-19T09:53:15.738Z,7.68
2022-12-19T09:55:46.536Z,7.67
2022-12-19T09:58:47.094Z,7.69
2022-12-19T10:01:29.612Z,7.69
2022-12-19T10:04:15.705Z,7.71
2022-12-19T10:07:21.261Z,7.76
2022-12-19T10:12:09.152Z,7.82
2022-12-19T10:13:25.313Z,7.83
2022-12-19T10:16:19.388Z,7.90
2022-12-19T10:18:57.227Z,7.93
2022-12-19T10:25:07.977Z,8.03
2022-12-19T10:28:48.054Z,8.12
2022-12-19T10:31:24.288Z,8.16
2022-12-19T10:34:21.765Z,8.18
2022-12-19T10:37:27.192Z,8.18
2022-12-19T10:40:27.907Z,8.24
2022-12-19T10:43:19.097Z,8.29
2022-12-19T10:46:02.595Z,8.32
2022-12-19T10:48:31.066Z,8.29
2022-12-19T10:51:00.601Z,8.24
2022-12-19T10:53:33.500Z,8.17
2022-12-19T10:56:12.516Z,8.07
2022-12-19T10:58:44.374Z,8.01
2022-12-19T11:01:22.947Z,7.97
2022-12-19T11:04:15.175Z,7.90
2022-12-19T11:06:50.330Z,7.83
2022-12-19T11:09:30.799Z,7.81
2022-12-19T11:16:01.059Z,7.80
2022-12-19T11:20:26.996Z,7.79
2022-12-19T11:25:14.006Z,7.77
2022-12-19T11:29:19.481Z,7.80
2022-12-19T11:30:38.645Z,7.81
2022-12-19T11:30:39.347Z,7.80
2022-12-19T11:32:44.162Z,7.88
2022-12-19T11:35:36.612Z,7.90
2022-12-19T11:38:06.759Z,7.92
2022-12-19T11:40:57.095Z,7.94
2022-12-19T11:43:44.364Z,7.96
2022-12-19T11:46:34.314Z,7.99
2022-12-19T11:49:44.231Z,8.10
2022-12-19T11:53:04.147Z,8.19
2022-12-19T11:56:16.506Z,8.31
2022-12-19T11:58:53.019Z,8.33
2022-12-19T12:01:35.740Z,8.39
2022-12-19T12:04:45.391Z,8.44
2022-12-19T12:07:38.023Z,8.52
2022-12-19T12:15:48.514Z,8.57
2022-12-19T12:24:41.668Z,8.62
2022-12-19T12:25:25.854Z,8.70
2022-12-19T12:31:39.937Z,8.79
2022-12-19T12:31:49.077Z,8.90
2022-12-19T12:31:53.297Z,8.94
2022-12-19T12:31:55.330Z,8.97
2022-12-19T12:35:38.322Z,9.05
2022-12-19T12:38:47.682Z,9.15
2022-12-19T12:41:57.804Z,9.18
2022-12-19T12:44:33.189Z,9.21
2022-12-19T12:47:27.410Z,9.25
2022-12-19T12:50:07.165Z,9.29
2022-12-19T12:52:47.948Z,9.34
2022-12-19T12:55:34.562Z,9.42
2022-12-19T12:58:01.326Z,9.48
2022-12-19T13:00:36.422Z,9.47
2022-12-19T13:03:16.276Z,9.51
2022-12-19T13:05:49.263Z,9.54
2022-12-19T13:08:48.866Z,9.53
2022-12-19T13:11:38.368Z,9.61
2022-12-19T13:14:26.823Z,9.67
2022-12-19T13:16:54.838Z,9.63
2022-12-19T13:19:50.740Z,9.68
2022-12-19T13:22:41.874Z,9.74
2022-12-19T13:25:46.464Z,9.76
2022-12-19T13:28:33.562Z,9.74
2022-12-19T13:31:18.885Z,9.79
2022-12-19T13:33:51.900Z,9.83
2022-12-19T13:39:48.573Z,9.86
2022-12-19T13:40:07.401Z,9.85
2022-12-19T13:43:09.832Z,9.88
2022-12-19T13:45:47.750Z,9.87
2022-12-19T13:48:26.541Z,9.90
2022-12-19T13:50:55.533Z,9.92
2022-12-19T13:53:26.669Z,9.93
2022-12-19T13:56:21.296Z,9.93
2022-12-19T13:59:02.507Z,9.96
2022-12-19T14:01:34.447Z,9.95
2022-12-19T14:04:35.079Z,9.90
2022-12-19T14:07:23.858Z,9.87
2022-12-19T14:11:33.583Z,9.84
2022-12-19T14:13:43.060Z,9.80
2022-12-19T14:15:52.036Z,9.75
2022-12-19T14:18:44.546Z,9.73
2022-12-19T14:22:09.747Z,9.69
2022-12-19T14:24:19.461Z,9.73
2022-12-19T14:28:16.901Z,9.76
2022-12-19T14:30:31.006Z,9.80
2022-12-19T14:33:45.424Z,9.85
2022-12-19T14:36:10.695Z,9.89
2022-12-19T14:39:27.530Z,9.91
2022-12-19T14:41:47.628Z,9.96
2022-12-19T14:52:35.387Z,10.00
2022-12-19T14:54:04.858Z,10.11
2022-12-19T14:54:10.025Z,10.03
2022-12-19T14:54:27.814Z,10.14
2022-12-19T14:56:12.428Z,10.10
2022-12-19T14:58:56.240Z,10.13
2022-12-19T15:01:29.379Z,10.16
2022-12-19T15:04:52.764Z,10.21
2022-12-19T15:07:08.331Z,10.25
2022-12-19T15:11:06.968Z,10.25
2022-12-19T15:14:53.152Z,10.26
2022-12-19T15:16:27.009Z,10.27
2022-12-19T15:18:59.750Z,10.29
2022-12-19T15:21:29.484Z,10.32
2022-12-19T15:23:56.928Z,10.37
2022-12-19T15:26:43.015Z,10.40
2022-12-19T15:29:19.862Z,10.40
2022-12-19T15:31:49.314Z,10.39
2022-12-19T15:34:37.380Z,10.36
2022-12-19T15:37:15.327Z,10.36
2022-12-19T15:39:44.393Z,10.33
2022-12-19T15:42:24.869Z,10.35
2022-12-19T15:44:55.757Z,10.37
2022-12-19T15:47:43.718Z,10.36
2022-12-19T15:50:25.568Z,10.36
2022-12-19T15:52:57.111Z,10.36
2022-12-19T15:55:29.018Z,10.38
2022-12-19T15:58:01.315Z,10.40
2022-12-19T16:00:34.992Z,10.39
2022-12-19T16:05:49.115Z,10.36
2022-12-19T16:08:20.783Z,10.34
2022-12-19T16:11:01.459Z,10.31
2022-12-19T16:13:35.314Z,10.33
2022-12-19T16:16:07.974Z,10.34
2022-12-19T16:18:42.592Z,10.35
2022-12-19T16:21:20.158Z,10.34
2022-12-19T16:23:47.962Z,10.31
2022-12-19T16:26:30.869Z,10.35
2022-12-19T16:28:58.185Z,10.33
2022-12-19T16:31:28.001Z,10.33
2022-12-19T16:33:55.524Z,10.34
2022-12-19T16:36:22.695Z,10.34
2022-12-19T16:38:49.555Z,10.33
2022-12-19T16:41:23.011Z,10.32
2022-12-19T16:43:51.339Z,10.33
2022-12-19T16:46:22.178Z,10.33
2022-12-19T16:48:50.095Z,10.32
2022-12-19T16:51:21.600Z,10.32
2022-12-19T16:53:54.394Z,10.29
2022-12-19T16:56:27.113Z,10.29
2022-12-19T16:58:55.600Z,10.28
2022-12-19T17:01:22.571Z,10.30
2022-12-19T17:03:49.461Z,10.28
2022-12-19T17:06:20.814Z,10.27
2022-12-19T17:08:49.162Z,10.22
2022-12-19T17:11:25.983Z,10.22
2022-12-19T17:14:08.313Z,10.24
2022-12-19T17:16:35.354Z,10.24
2022-12-19T17:19:02.429Z,10.23
2022-12-19T17:21:29.378Z,10.21
2022-12-19T17:23:56.326Z,10.20
2022-12-19T17:26:23.422Z,10.24
2022-12-19T17:28:51.717Z,10.28
2022-12-19T17:31:29.027Z,10.29
2022-12-19T17:33:58.208Z,10.28
2022-12-19T17:36:37.075Z,10.30
2022-12-19T17:39:33.440Z,10.28
2022-12-19T17:42:13.679Z,10.27
2022-12-19T17:44:40.456Z,10.30
2022-12-19T17:47:07.388Z,10.31
2022-12-19T17:49:34.387Z,10.31
2022-12-19T17:52:01.166Z,10.29
2022-12-19T17:54:27.959Z,10.27
2022-12-19T17:56:55.619Z,10.28
2022-12-19T17:59:22.390Z,10.23
2022-12-19T18:01:49.576Z,10.25
2022-12-19T18:04:21.648Z,10.22
2022-12-19T18:06:49.326Z,10.22
2022-12-19T18:09:22.868Z,10.24
2022-12-19T18:11:51.479Z,10.24
2022-12-19T18:14:19.615Z,10.23
2022-12-19T18:16:48.348Z,10.23
2022-12-19T18:19:21.437Z,10.19
2022-12-19T18:21:49.158Z,10.16
2022-12-19T18:24:16.744Z,10.18
2022-12-19T18:26:45.215Z,10.19
2022-12-19T18:29:13.185Z,10.20
2022-12-19T18:31:46.480Z,10.20
2022-12-19T18:34:22.981Z,10.20
2022-12-19T18:36:51.251Z,10.18
2022-12-19T18:39:23.258Z,10.20
2022-12-19T18:41:52.020Z,10.21
2022-12-19T18:44:19.830Z,10.19
2022-12-19T18:46:50.144Z,10.18
2022-12-19T18:49:17.981Z,10.15
2022-12-19T18:51:45.122Z,10.17
2022-12-19T18:54:18.285Z,10.14
2022-12-19T18:56:45.930Z,10.13
2022-12-19T18:59:13.208Z,10.13
2022-12-19T19:01:46.294Z,10.09
2022-12-19T19:04:17.917Z,10.16
2022-12-19T19:06:51.798Z,10.20
2022-12-19T19:09:21.574Z,10.17
2022-12-19T19:12:17.592Z,10.12
2022-12-19T19:14:44.506Z,10.10
2022-12-19T19:17:28.628Z,10.10
2022-12-19T19:19:55.453Z,10.10
2022-12-19T19:22:22.309Z,10.06
2022-12-19T19:24:49.087Z,10.10
2022-12-19T19:27:15.867Z,10.15
2022-12-19T19:29:42.616Z,10.19
2022-12-19T19:32:10.276Z,10.17
2022-12-19T19:34:40.715Z,10.20
2022-12-19T19:37:12.034Z,10.20
2022-12-19T19:39:38.861Z,10.19
2022-12-19T19:42:06.105Z,10.24
2022-12-19T19:44:32.950Z,10.26
2022-12-19T19:47:00.154Z,10.27
2022-12-19T19:49:27.143Z,10.29
2022-12-19T19:51:58.713Z,10.32
2022-12-19T19:54:29.409Z,10.34
2022-12-19T19:56:56.153Z,10.29
2022-12-19T19:59:22.993Z,10.27
2022-12-19T20:01:54.253Z,10.24
2022-12-19T20:04:21.393Z,10.23
2022-12-19T20:06:48.422Z,10.22
2022-12-19T20:09:15.174Z,10.23
2022-12-19T20:11:42.004Z,10.21
2022-12-19T20:14:09.266Z,10.19
2022-12-19T20:16:36.147Z,10.20
2022-12-19T20:19:03.205Z,10.17
2022-12-19T20:21:30.760Z,10.19
2022-12-19T20:23:57.717Z,10.20
2022-12-19T20:26:24.498Z,10.18
2022-12-19T20:28:51.697Z,10.16
2022-12-19T20:31:22.185Z,10.19
2022-12-19T20:33:50.510Z,10.18
2022-12-19T20:36:17.832Z,10.18
2022-12-19T20:38:44.765Z,10.19
2022-12-19T20:41:11.608Z,10.20
2022-12-19T20:43:39.156Z,10.26
2022-12-19T20:46:12.116Z,10.26
2022-12-19T20:48:39.752Z,10.29
2022-12-19T20:51:07.804Z,10.27
2022-12-19T20:53:37.500Z,10.26
2022-12-19T20:56:06.510Z,10.20
2022-12-19T20:58:37.300Z,10.14
2022-12-19T21:01:17.501Z,10.12
2022-12-19T21:03:44.996Z,10.06
2022-12-19T21:06:15.077Z,10.06
2022-12-19T21:08:42.951Z,10.02
2022-12-19T21:11:11.456Z,10.01
2022-12-19T21:13:39.579Z,9.98
2022-12-19T21:16:10.953Z,9.92
2022-12-19T21:18:40.106Z,9.94
2022-12-19T21:21:11.183Z,9.91
2022-12-19T21:23:38.039Z,9.90
2022-12-19T21:26:05.114Z,9.93
2022-12-19T21:28:33.281Z,9.91
2022-12-19T21:31:16.273Z,9.94
2022-12-19T21:33:44.499Z,9.92
2022-12-19T21:36:20.275Z,9.94
2022-12-19T21:38:50.422Z,9.88
2022-12-19T21:41:21.505Z,9.91
2022-12-19T21:43:53.470Z,9.89
2022-12-19T21:46:24.874Z,9.92
2022-12-19T21:48:54.881Z,9.98
2022-12-19T21:51:25.699Z,9.95
2022-12-19T21:54:00.331Z,9.87
2022-12-19T21:56:32.334Z,9.90
2022-12-19T21:59:05.800Z,9.95
2022-12-19T22:01:34.359Z,10.02
2022-12-19T22:04:08.728Z,10.08
2022-12-19T22:06:37.857Z,10.14
2022-12-19T22:09:08.161Z,10.17
2022-12-19T22:11:36.911Z,10.18
2022-12-19T22:14:05.325Z,10.24
2022-12-19T22:16:33.881Z,10.30
2022-12-19T22:19:01.675Z,10.32
2022-12-19T22:21:29.053Z,10.28
2022-12-19T22:24:03.452Z,10.23
2022-12-19T22:26:32.197Z,10.20
2022-12-19T22:28:59.361Z,10.20
2022-12-19T22:31:30.361Z,10.15
2022-12-19T22:34:10.330Z,10.08
2022-12-19T22:36:39.808Z,10.09
2022-12-19T22:39:11.894Z,10.03
2022-12-19T22:41:40.169Z,9.98
2022-12-19T22:44:14.511Z,10.03
2022-12-19T22:46:41.254Z,10.05
2022-12-19T22:49:08.948Z,10.05
2022-12-19T22:51:36.939Z,10.08
2022-12-19T22:54:05.076Z,10.12
2022-12-19T22:56:34.411Z,10.13
2022-12-19T22:59:05.360Z,10.09
2022-12-19T23:01:39.324Z,10.05
2022-12-19T23:04:09.344Z,10.07
2022-12-19T23:06:38.470Z,10.10
2022-12-19T23:09:07.901Z,10.11
2022-12-19T23:11:39.873Z,10.24
2022-12-19T23:14:09.501Z,10.32
2022-12-19T23:16:36.432Z,10.51
2022-12-19T23:19:05.338Z,10.62
2022-12-19T23:21:32.614Z,10.65
2022-12-19T23:23:59.537Z,10.68
2022-12-19T23:26:38.213Z,10.78
2022-12-19T23:29:09.033Z,10.85
2022-12-19T23:31:40.003Z,10.90
2022-12-19T23:34:06.875Z,10.91
2022-12-19T23:39:20.566Z,10.95
2022-12-19T23:41:47.299Z,10.99
2022-12-19T23:44:14.423Z,11.00
2022-12-19T23:46:41.547Z,10.96
2022-12-19T23:49:08.416Z,10.94
2022-12-19T23:51:35.205Z,10.96
2022-12-19T23:54:02.123Z,10.98
2022-12-19T23:56:32.256Z,10.97
2022-12-19T23:58:59.907Z,11.01
